Time;durP1;ratioP1;P1;durP2;ratioP2;P2;SDS_P1;SDS_P2;PMS_P1;PMS_P2;Temp;Humidity;BMP_temperature;BMP_pressure;BME280_temperature;BME280_humidity;BME280_pressure;Samples;Min_cycle;Max_cycle;Signal;HPM_P1;HPM_P2
2021/10/29 00:01:34;;;;;;;104.73;41.80;;;;;;;9.52;69.52;98018.06;8346422;28;20254;-65
2021/10/29 00:05:39;;;;;;;86.47;38.53;;;;;;;9.77;68.39;98007.56;8347275;28;20252;-65
2021/10/29 00:09:42;;;;;;;47.73;38.03;;;;;;;9.89;68.08;98005.41;8347406;28;20398;-65
2021/10/29 00:13:44;;;;;;;148.50;39.60;;;;;;;9.47;69.52;98004.47;8347222;28;20227;-65
2021/10/29 00:17:48;;;;;;;108.93;38.93;;;;;;;9.57;69.06;98008.34;8347248;28;20227;-65
2021/10/29 00:21:52;;;;;;;52.27;34.80;;;;;;;9.63;69.18;98003.84;8347078;28;20239;-65
2021/10/29 00:25:55;;;;;;;67.77;36.23;;;;;;;9.43;69.68;98002.06;8347321;28;20449;-65
2021/10/29 00:29:58;;;;;;;79.10;35.70;;;;;;;9.75;68.32;97998.22;8347088;28;20232;-65
2021/10/29 00:34:01;;;;;;;150.87;36.47;;;;;;;9.43;69.46;98002.91;8367297;28;20531;-65
2021/10/29 00:38:05;;;;;;;67.73;33.73;;;;;;;9.54;68.70;98003.31;8380069;28;20576;-66
2021/10/29 00:42:11;;;;;;;122.20;33.30;;;;;;;9.20;70.28;98002.03;8380241;28;20232;-65
2021/10/29 00:46:14;;;;;;;51.23;32.83;;;;;;;9.56;68.66;98001.53;8378965;28;20235;-66
2021/10/29 00:50:17;;;;;;;76.63;32.23;;;;;;;9.47;68.80;97994.13;8379731;28;20253;-65
2021/10/29 00:54:21;;;;;;;41.57;31.30;;;;;;;9.84;67.79;97991.81;8379760;28;20240;-65
2021/10/29 00:58:24;;;;;;;114.87;32.47;;;;;;;9.83;66.89;97992.72;8379576;28;20232;-65
2021/10/29 01:02:27;;;;;;;36.17;30.30;;;;;;;9.87;67.45;97996.88;8363513;28;20232;-65
2021/10/29 01:06:32;;;;;;;37.57;28.70;;;;;;;9.88;67.62;97994.22;8346503;28;20232;-65
2021/10/29 01:10:37;;;;;;;46.93;32.67;;;;;;;9.60;67.93;97989.31;8349463;28;20232;-65
2021/10/29 01:14:40;;;;;;;43.83;32.47;;;;;;;9.83;67.05;97987.56;8352348;28;20232;-65
2021/10/29 01:18:44;;;;;;;75.27;32.40;;;;;;;9.56;68.16;97991.19;8352221;28;20228;-65
2021/10/29 01:22:48;;;;;;;184.10;36.57;;;;;;;9.52;67.92;97992.22;8351746;28;20239;-65
2021/10/29 01:26:51;;;;;;;318.93;35.67;;;;;;;9.52;67.63;97975.84;8351889;28;20239;-65
2021/10/29 01:30:54;;;;;;;34.93;28.50;;;;;;;9.78;66.92;97980.78;8352085;28;20228;-65
2021/10/29 01:34:58;;;;;;;113.70;29.47;;;;;;;9.66;67.28;97973.53;8351740;28;20556;-65
2021/10/29 01:39:03;;;;;;;100.40;27.90;;;;;;;9.41;67.85;97978.88;8351541;28;20231;-65
2021/10/29 01:43:08;;;;;;;323.10;30.57;;;;;;;8.99;67.98;97975.28;8352072;28;20236;-65
2021/10/29 01:47:14;;;;;;;41.27;25.07;;;;;;;9.10;69.63;97976.59;8352084;28;20248;-65
2021/10/29 01:51:18;;;;;;;307.57;29.93;;;;;;;9.03;67.97;97973.44;8350851;28;20259;-65
2021/10/29 01:55:22;;;;;;;204.30;26.73;;;;;;;8.87;68.86;97959.41;8351015;28;20244;-65
2021/10/29 01:59:25;;;;;;;36.73;24.43;;;;;;;9.32;67.58;97961.13;8351201;28;20232;-65
2021/10/29 02:03:28;;;;;;;31.93;21.93;;;;;;;9.49;66.75;97950.13;8350807;28;20234;-65
2021/10/29 02:07:31;;;;;;;40.63;23.37;;;;;;;9.56;66.61;97952.41;8350673;28;20244;-65
2021/10/29 02:11:35;;;;;;;57.07;24.73;;;;;;;9.39;66.67;97954.81;8350641;28;20228;-65
2021/10/29 02:15:38;;;;;;;81.53;24.00;;;;;;;9.46;66.24;97958.84;8350703;28;20554;-65
2021/10/29 02:19:41;;;;;;;51.90;23.23;;;;;;;9.18;66.68;97952.16;8350260;28;20228;-65
2021/10/29 02:23:44;;;;;;;112.53;24.50;;;;;;;9.12;67.24;97955.00;8349719;28;20228;-65
2021/10/29 02:27:48;;;;;;;29.30;21.97;;;;;;;9.56;66.10;97946.41;8349857;28;20243;-65
2021/10/29 02:31:51;;;;;;;103.43;23.43;;;;;;;9.46;66.24;97935.59;8350010;28;20239;-65
2021/10/29 02:35:54;;;;;;;85.33;24.30;;;;;;;9.39;66.62;97944.47;8349676;28;20232;-65
2021/10/29 02:39:57;;;;;;;67.70;24.27;;;;;;;9.30;66.43;97948.25;8349653;28;20234;-65
2021/10/29 02:44:01;;;;;;;56.53;22.63;;;;;;;9.39;66.19;97942.72;8349569;28;20421;-65
2021/10/29 02:48:05;;;;;;;28.90;23.17;;;;;;;9.30;66.81;97935.34;8349368;28;20240;-65
2021/10/29 02:52:08;;;;;;;76.20;23.33;;;;;;;9.28;65.43;97929.41;8349264;28;20240;-65
2021/10/29 02:56:12;;;;;;;171.53;25.30;;;;;;;9.06;66.66;97918.22;8349184;28;20232;-65
2021/10/29 03:00:18;;;;;;;64.27;24.50;;;;;;;8.93;67.81;97910.97;8348825;28;20236;-65
2021/10/29 03:04:21;;;;;;;56.80;23.30;;;;;;;8.92;67.40;97916.16;8348659;28;20240;-65
2021/10/29 03:08:24;;;;;;;77.63;23.57;;;;;;;8.68;68.45;97913.63;8349017;28;20237;-65
2021/10/29 03:12:27;;;;;;;45.70;23.10;;;;;;;8.85;67.95;97922.47;8348830;28;20267;-64
2021/10/29 03:16:33;;;;;;;120.57;24.73;;;;;;;9.14;65.91;97916.19;8348509;28;20236;-65
2021/10/29 03:20:36;;;;;;;32.33;24.17;;;;;;;9.34;66.59;97920.56;8348699;28;20286;-65
2021/10/29 03:24:38;;;;;;;34.93;24.83;;;;;;;9.35;66.13;97914.50;8348697;28;20251;-65
2021/10/29 03:28:41;;;;;;;72.87;28.70;;;;;;;9.02;66.50;97912.31;8348539;28;20232;-65
2021/10/29 03:32:46;;;;;;;33.47;26.83;;;;;;;9.00;66.86;97896.91;8347698;28;20228;-65
2021/10/29 03:36:49;;;;;;;38.17;28.77;;;;;;;9.04;65.91;97899.34;8348178;28;20231;-65
2021/10/29 03:40:56;;;;;;;33.23;29.03;;;;;;;8.87;66.13;97898.28;8348419;28;20239;-64
2021/10/29 03:45:01;;;;;;;37.87;29.97;;;;;;;9.06;65.45;97902.72;8348072;28;20255;-65
2021/10/29 03:49:14;;;;;;;30.03;26.83;;;;;;;9.39;64.85;97910.88;8347912;28;20236;-64
2021/10/29 03:53:28;;;;;;;33.97;26.13;;;;;;;9.36;64.21;97913.59;8347598;28;20228;-66
2021/10/29 03:57:31;;;;;;;30.00;26.80;;;;;;;9.36;64.56;97917.00;8347678;28;20240;-65
2021/10/29 04:01:37;;;;;;;33.47;29.50;;;;;;;9.06;64.69;97910.47;8347381;28;20236;-65
2021/10/29 04:05:41;;;;;;;31.97;27.03;;;;;;;9.12;65.11;97913.66;8347146;28;20245;-65
2021/10/29 04:09:46;;;;;;;29.57;24.40;;;;;;;9.40;63.65;97912.56;8347518;28;20471;-64
2021/10/29 04:13:49;;;;;;;27.17;24.37;;;;;;;9.16;64.73;97907.47;8347503;28;20343;-65
2021/10/29 04:17:52;;;;;;;28.13;23.90;;;;;;;9.51;63.23;97909.53;8347293;28;20236;-65
2021/10/29 04:21:57;;;;;;;25.57;23.07;;;;;;;9.44;63.19;97903.75;8347021;28;20232;-65
2021/10/29 04:26:00;;;;;;;25.87;23.17;;;;;;;9.49;63.38;97914.75;8347203;28;20255;-65
2021/10/29 04:30:11;;;;;;;25.63;22.90;;;;;;;9.30;63.41;97906.06;8347368;28;20236;-65
2021/10/29 04:34:14;;;;;;;26.43;23.60;;;;;;;9.25;63.56;97908.00;8346661;28;20235;-64
2021/10/29 04:38:18;;;;;;;26.17;23.30;;;;;;;9.50;62.89;97907.84;8346686;28;20236;-65
2021/10/29 04:42:21;;;;;;;26.90;23.20;;;;;;;9.02;64.29;97902.00;8347177;28;20243;-65
2021/10/29 04:46:24;;;;;;;27.07;24.33;;;;;;;8.82;65.06;97883.88;8351236;28;20244;-65
2021/10/29 04:50:31;;;;;;;41.37;26.47;;;;;;;7.96;67.21;97883.50;8352774;28;20407;-65
2021/10/29 04:54:35;;;;;;;25.03;22.13;;;;;;;8.59;65.46;97883.00;8380788;28;20231;-64
2021/10/29 04:58:38;;;;;;;23.97;21.57;;;;;;;8.65;64.75;97887.91;8320118;28;20237;-65
2021/10/29 05:02:41;;;;;;;22.73;20.63;;;;;;;8.49;65.28;97885.09;8340029;28;20228;-65
2021/10/29 05:06:44;;;;;;;23.00;20.70;;;;;;;8.77;64.50;97881.44;8351772;28;20295;-65
2021/10/29 05:10:48;;;;;;;24.53;22.13;;;;;;;8.73;64.14;97883.31;8352157;28;20235;-64
2021/10/29 05:14:51;;;;;;;22.53;20.43;;;;;;;8.93;63.46;97874.78;8352194;28;20228;-65
2021/10/29 05:18:54;;;;;;;22.93;20.63;;;;;;;8.97;63.19;97872.94;8351549;28;20228;-65
2021/10/29 05:22:57;;;;;;;23.97;21.50;;;;;;;8.86;64.14;97868.19;8351629;28;20229;-64
2021/10/29 05:27:01;;;;;;;22.93;19.53;;;;;;;9.05;63.60;97870.88;8350875;28;20231;-65
2021/10/29 05:31:05;;;;;;;25.57;21.37;;;;;;;9.07;63.43;97866.50;8350927;28;20236;-65
2021/10/29 05:35:10;;;;;;;22.33;20.20;;;;;;;9.27;62.91;97867.44;8351154;28;20242;-65
2021/10/29 05:39:13;;;;;;;21.87;19.63;;;;;;;9.12;62.31;97866.28;8342817;28;20229;-65
2021/10/29 05:43:18;;;;;;;22.97;20.53;;;;;;;8.86;63.80;97863.00;8351196;28;20562;-65
2021/10/29 05:47:22;;;;;;;23.10;20.70;;;;;;;8.50;63.88;97862.69;8351141;28;20243;-65
2021/10/29 05:51:26;;;;;;;22.60;20.27;;;;;;;8.10;65.06;97857.22;8351308;28;20236;-65
2021/10/29 05:55:29;;;;;;;21.57;19.43;;;;;;;8.68;63.75;97864.59;8350631;28;20247;-65
2021/10/29 05:59:35;;;;;;;21.60;19.60;;;;;;;8.69;63.35;97863.66;8350720;28;20440;-65
2021/10/29 06:03:38;;;;;;;23.00;20.70;;;;;;;8.27;65.09;97873.84;8350805;28;20228;-65
2021/10/29 06:07:41;;;;;;;22.97;20.77;;;;;;;8.77;62.68;97877.09;8350653;28;20243;-65
2021/10/29 06:11:44;;;;;;;21.03;18.80;;;;;;;8.63;64.25;97878.56;8350425;28;20235;-65
2021/10/29 06:15:48;;;;;;;20.50;18.40;;;;;;;9.05;62.42;97870.88;8350371;28;20235;-64
2021/10/29 06:19:51;;;;;;;20.60;18.60;;;;;;;9.04;62.28;97873.53;8377114;28;20238;-65
2021/10/29 06:23:59;;;;;;;20.77;18.67;;;;;;;9.06;62.08;97872.53;8383226;28;20242;-64
2021/10/29 06:28:17;;;;;;;21.67;19.57;;;;;;;8.68;62.38;97869.75;8383155;28;20294;-65
2021/10/29 06:32:21;;;;;;;21.60;19.40;;;;;;;8.75;62.82;97881.50;8382391;28;20235;-65
2021/10/29 06:36:24;;;;;;;20.17;18.10;;;;;;;9.11;61.39;97862.88;8382890;28;20242;-65
2021/10/29 06:40:28;;;;;;;23.33;19.13;;;;;;;9.23;61.31;97860.72;8382838;28;20231;-65
2021/10/29 06:44:41;;;;;;;20.10;18.23;;;;;;;8.89;61.59;97864.63;8382103;28;20238;-64
2021/10/29 06:49:07;;;;;;;20.53;18.53;;;;;;;9.13;61.33;97865.41;8382511;28;20231;-65
2021/10/29 07:01:58;;;;;;;23.13;18.33;;;;;;;8.91;61.52;97870.56;8370815;28;20243;-65
2021/10/29 07:40:47;;;;;;;48.33;21.57;;;;;;;8.52;61.99;97874.63;8348139;28;20561;-65
2021/10/29 07:44:49;;;;;;;52.07;21.50;;;;;;;8.20;63.29;97883.53;8348147;28;20405;-65
2021/10/29 07:48:52;;;;;;;23.53;21.03;;;;;;;8.78;61.13;97890.88;8347910;28;20239;-65
2021/10/29 07:52:59;;;;;;;22.80;20.40;;;;;;;8.69;62.42;97881.75;8347898;28;20551;-65
2021/10/29 07:57:04;;;;;;;28.60;22.03;;;;;;;8.55;62.02;97871.13;8347776;28;20239;-65
2021/10/29 08:01:07;;;;;;;27.83;20.57;;;;;;;8.40;63.00;97873.31;8345888;28;20428;-64
2021/10/29 08:05:10;;;;;;;23.57;21.00;;;;;;;8.32;63.18;97874.50;8347615;28;20589;-64
2021/10/29 08:09:13;;;;;;;24.40;21.87;;;;;;;8.63;62.07;97881.97;8347261;28;20537;-61
2021/10/29 08:13:17;;;;;;;25.27;22.63;;;;;;;8.40;63.21;97890.56;8347771;28;20242;-61
2021/10/29 08:17:20;;;;;;;26.03;23.33;;;;;;;8.35;63.21;97885.53;8347598;28;20247;-61
2021/10/29 08:21:23;;;;;;;25.20;22.50;;;;;;;8.55;62.79;97881.44;8352977;28;20240;-61
2021/10/29 08:25:26;;;;;;;25.87;23.20;;;;;;;8.48;62.96;97883.38;8353412;28;20550;-61
2021/10/29 08:29:31;;;;;;;27.40;23.30;;;;;;;8.38;62.67;97888.03;8354021;28;20239;-61
2021/10/29 08:33:34;;;;;;;30.13;25.30;;;;;;;8.29;63.34;97885.78;8353853;28;20430;-61
2021/10/29 08:37:41;;;;;;;38.93;25.23;;;;;;;8.38;63.40;97882.03;8353340;28;20534;-60
2021/10/29 08:41:45;;;;;;;29.97;26.33;;;;;;;8.30;63.65;97884.03;8353371;28;20236;-60
2021/10/29 08:45:50;;;;;;;44.63;26.60;;;;;;;8.15;63.83;97883.69;8353041;28;20534;-61
2021/10/29 08:49:53;;;;;;;37.60;25.57;;;;;;;8.19;64.00;97885.25;8353086;28;20462;-62
2021/10/29 08:53:56;;;;;;;33.77;25.47;;;;;;;8.21;63.15;97888.63;8352964;28;20228;-61
2021/10/29 08:58:01;;;;;;;24.93;22.33;;;;;;;8.55;62.46;97894.34;8352685;28;20424;-61
2021/10/29 09:02:11;;;;;;;26.70;23.90;;;;;;;8.10;64.51;97889.91;8352644;28;20240;-61
2021/10/29 09:06:28;;;;;;;28.07;25.07;;;;;;;8.55;62.92;97878.84;8352090;28;20236;-61
2021/10/29 09:32:58;;;;;;;28.63;25.73;;;;;;;10.23;58.60;97852.13;8351132;28;20421;-70
2021/10/29 09:37:05;;;;;;;28.70;25.47;;;;;;;10.34;58.34;97857.69;8351896;28;20254;-70
2021/10/29 09:41:08;;;;;;;33.33;29.37;;;;;;;10.11;58.82;97865.59;8351568;28;20236;-69
2021/10/29 09:45:14;;;;;;;31.67;28.27;;;;;;;9.32;61.00;97861.16;8351718;28;20255;-70
2021/10/29 09:49:24;;;;;;;31.37;28.03;;;;;;;9.55;60.35;97854.22;8350838;28;20236;-72
2021/10/29 09:57:53;;;;;;;31.23;27.77;;;;;;;9.14;62.63;97846.44;8347588;28;20232;-70
2021/10/29 10:01:56;;;;;;;31.70;28.30;;;;;;;9.46;61.73;97846.84;8350687;28;20227;-71
2021/10/29 10:05:59;;;;;;;33.47;29.97;;;;;;;9.54;60.94;97847.38;8350514;28;20295;-62
2021/10/29 10:10:06;;;;;;;35.70;31.83;;;;;;;9.52;61.11;97841.41;8350770;28;20240;-61
2021/10/29 10:14:10;;;;;;;34.50;30.90;;;;;;;9.40;61.25;97827.25;8350200;28;20231;-61
2021/10/29 10:18:13;;;;;;;32.20;28.87;;;;;;;9.70;61.03;97829.47;8349805;28;20251;-61
2021/10/29 10:22:18;;;;;;;34.80;30.53;;;;;;;9.85;60.72;97825.38;8349799;28;20232;-61
2021/10/29 10:26:30;;;;;;;33.40;29.87;;;;;;;9.47;62.03;97822.69;8350214;28;20243;-63
2021/10/29 10:30:46;;;;;;;35.30;31.60;;;;;;;9.61;61.46;97819.50;8349819;28;20232;-61
2021/10/29 10:43:56;;;;;;;33.20;29.67;;;;;;;9.92;60.85;97813.84;8349510;28;20425;-62
2021/10/29 10:48:01;;;;;;;37.47;32.80;;;;;;;9.97;60.63;97801.53;8349368;28;20240;-61
2021/10/29 10:52:11;;;;;;;34.53;30.43;;;;;;;10.17;59.82;97808.44;8349030;28;20232;-61
2021/10/29 10:56:32;;;;;;;33.73;30.30;;;;;;;10.04;59.72;97784.00;8340213;28;20243;-62
2021/10/29 11:00:48;;;;;;;37.57;33.47;;;;;;;9.84;61.28;97777.13;8348025;28;20257;-61
2021/10/29 11:05:12;;;;;;;33.23;29.87;;;;;;;10.01;60.47;97776.38;8348750;28;20236;-62
2021/10/29 11:10:01;;;;;;;33.30;29.73;;;;;;;10.25;59.49;97759.72;8348439;28;20231;-61
2021/10/29 11:14:06;;;;;;;34.17;30.57;;;;;;;10.22;60.34;97774.56;8348731;28;20254;-61
2021/10/29 11:18:34;;;;;;;35.80;30.87;;;;;;;10.07;60.96;97768.31;8348456;28;20236;-61
2021/10/29 11:22:42;;;;;;;38.63;34.23;;;;;;;9.87;61.77;97756.31;8345165;28;20224;-70
2021/10/29 11:26:49;;;;;;;37.00;33.13;;;;;;;10.07;61.05;97743.31;8348849;28;20224;-69
2021/10/29 11:30:54;;;;;;;35.67;31.53;;;;;;;10.01;60.96;97753.91;8348643;28;20232;-70
2021/10/29 11:35:01;;;;;;;40.40;35.10;;;;;;;10.14;60.24;97749.88;8348208;28;20277;-70
2021/10/29 11:39:10;;;;;;;36.37;31.57;;;;;;;10.49;60.29;97736.22;8348074;28;20243;-70
2021/10/29 11:43:21;;;;;;;37.63;33.73;;;;;;;10.28;60.19;97740.63;8347639;28;20234;-71
2021/10/29 11:47:29;;;;;;;40.33;33.87;;;;;;;10.35;60.33;97729.09;8348418;28;20263;-70
2021/10/29 11:51:34;;;;;;;37.10;33.17;;;;;;;10.65;59.92;97725.97;8347604;28;20426;-70
2021/10/29 11:55:41;;;;;;;41.83;35.90;;;;;;;10.61;59.66;97722.69;8347377;28;20239;-72
2021/10/29 12:00:09;;;;;;;39.63;35.37;;;;;;;10.24;60.71;97724.41;8351546;28;20247;-66
2021/10/29 12:08:37;;;;;;;40.13;35.93;;;;;;;10.49;59.97;97715.50;8357040;28;20235;-65
2021/10/29 12:12:41;;;;;;;40.20;36.00;;;;;;;10.73;59.56;97710.91;8347575;28;20236;-65
2021/10/29 12:16:44;;;;;;;38.90;34.73;;;;;;;10.83;58.90;97714.69;8361779;28;20235;-66
2021/10/29 12:20:49;;;;;;;40.70;34.93;;;;;;;11.19;58.40;97694.81;8349410;28;20530;-66
2021/10/29 12:24:57;;;;;;;48.00;38.97;;;;;;;10.02;61.51;97684.94;8346292;28;20239;-65
2021/10/29 12:29:01;;;;;;;41.57;37.20;;;;;;;10.86;60.26;97678.28;8340354;28;20246;-66
2021/10/29 12:38:08;;;;;;;43.87;36.20;;;;;;;11.38;57.89;97666.19;8335731;28;20232;-66
2021/10/29 13:04:40;;;;;;;38.87;34.70;;;;;;;12.87;54.90;97650.16;8331630;28;20281;-65
2021/10/29 13:08:43;;;;;;;37.67;33.67;;;;;;;12.75;54.67;97648.28;8322089;28;20243;-65
2021/10/29 13:12:53;;;;;;;36.37;32.63;;;;;;;12.48;55.81;97656.75;8319513;28;20228;-65
2021/10/29 13:17:04;;;;;;;38.27;34.17;;;;;;;12.38;56.08;97648.66;8319674;28;20308;-65
2021/10/29 13:35:05;;;;;;;41.27;32.23;;;;;;;13.21;53.58;97642.97;8356649;28;20418;-65
2021/10/29 13:52:25;;;;;;;39.43;33.87;;;;;;;13.08;53.93;97630.72;8408239;28;20230;-66
2021/10/29 13:56:41;;;;;;;40.15;36.08;;;;;;;13.46;53.21;97638.00;8407260;28;20413;-60
2021/10/29 14:31:18;;;;;;;39.13;35.07;;;;;;;12.53;56.93;97620.97;8470364;28;20225;-64
2021/10/29 14:35:25;;;;;;;39.63;35.47;;;;;;;12.59;56.27;97607.63;8474545;28;20230;-64
2021/10/29 14:39:35;;;;;;;38.63;34.53;;;;;;;12.44;57.49;97617.13;8461740;28;20261;-64
2021/10/29 14:43:40;;;;;;;37.80;33.80;;;;;;;12.38;56.77;97611.47;8451844;28;20230;-64
2021/10/29 14:47:53;;;;;;;39.93;35.73;;;;;;;12.37;57.55;97613.19;8451579;28;20234;-64
2021/10/29 15:05:31;;;;;;;39.77;35.43;;;;;;;12.20;58.41;97595.97;8451071;28;20237;-65
2021/10/29 15:18:26;;;;;;;40.47;36.37;;;;;;;12.03;58.72;97591.78;8450351;28;20236;-65
2021/10/29 15:27:08;;;;;;;40.67;36.30;;;;;;;11.96;59.16;97589.59;8405863;28;20246;-65
2021/10/29 15:31:24;;;;;;;42.57;38.00;;;;;;;11.95;59.36;97590.50;8450354;28;20230;-65
2021/10/29 15:44:13;;;;;;;39.53;35.50;;;;;;;11.70;59.87;97586.66;8450311;28;20233;-64
2021/10/29 15:48:20;;;;;;;38.10;34.13;;;;;;;11.77;59.47;97595.78;8449485;28;20236;-65
2021/10/29 15:52:23;;;;;;;39.20;35.07;;;;;;;11.79;59.70;97595.69;8448756;28;20230;-63
2021/10/29 15:56:32;;;;;;;39.53;35.43;;;;;;;11.78;59.45;97592.25;8449459;28;20421;-65
2021/10/29 16:00:48;;;;;;;41.50;37.30;;;;;;;12.10;58.22;97589.66;8449028;28;20453;-59
2021/10/29 16:17:54;;;;;;;36.83;32.83;;;;;;;11.47;60.23;97572.34;8448941;28;20229;-60
2021/10/29 16:21:59;;;;;;;40.67;36.27;;;;;;;11.33;60.52;97573.09;8448265;28;20225;-59
2021/10/29 16:26:04;;;;;;;41.13;36.67;;;;;;;11.40;60.30;97577.00;8448133;28;20229;-59
2021/10/29 16:30:08;;;;;;;43.50;38.87;;;;;;;11.45;60.36;97582.78;8447877;28;20230;-59
2021/10/29 16:34:12;;;;;;;42.10;37.50;;;;;;;11.40;59.88;97574.41;8448140;28;20443;-59
2021/10/29 16:38:20;;;;;;;41.97;36.57;;;;;;;11.35;60.08;97579.88;8447681;28;20552;-59
2021/10/29 16:42:25;;;;;;;40.90;36.60;;;;;;;11.33;59.93;97584.28;8447973;28;20232;-64
2021/10/29 16:46:28;;;;;;;41.40;37.00;;;;;;;11.21;60.06;97594.47;8417263;28;20234;-65
2021/10/29 16:50:31;;;;;;;44.23;39.60;;;;;;;11.20;59.77;97603.19;8413885;28;20243;-64
2021/10/29 16:54:35;;;;;;;49.77;44.23;;;;;;;11.18;60.29;97607.63;8414403;28;20237;-64
2021/10/29 16:58:38;;;;;;;64.20;57.23;;;;;;;11.15;59.86;97606.00;8414143;28;20543;-64
2021/10/29 17:02:42;;;;;;;59.93;53.53;;;;;;;11.10;59.48;97615.75;8413788;28;20517;-64
2021/10/29 17:06:45;;;;;;;51.17;45.50;;;;;;;11.03;60.07;97629.97;8414015;28;20428;-64
2021/10/29 17:10:49;;;;;;;51.47;45.87;;;;;;;11.07;59.84;97631.47;8413925;28;20242;-64
2021/10/29 17:14:52;;;;;;;51.13;45.63;;;;;;;10.98;59.27;97625.00;8413943;28;20233;-64
2021/10/29 17:18:56;;;;;;;46.87;42.00;;;;;;;10.91;59.43;97621.09;8413900;28;20226;-65
2021/10/29 17:22:59;;;;;;;42.57;38.20;;;;;;;10.90;59.50;97632.34;8413880;28;20227;-64
2021/10/29 17:27:03;;;;;;;42.83;37.90;;;;;;;10.88;59.64;97632.41;8413792;28;20230;-65
2021/10/29 17:31:06;;;;;;;42.73;38.13;;;;;;;10.90;59.15;97653.06;8441946;28;20229;-64
2021/10/29 17:35:10;;;;;;;40.37;36.00;;;;;;;10.83;59.17;97652.53;8447192;28;20286;-65
2021/10/29 17:39:12;;;;;;;43.50;39.03;;;;;;;11.26;57.08;97637.38;8416277;28;20412;-65
2021/10/29 17:43:17;;;;;;;41.60;37.43;;;;;;;10.77;59.10;97652.84;8413647;28;20234;-65
2021/10/29 17:47:20;;;;;;;40.03;35.77;;;;;;;10.76;58.77;97658.97;8412894;28;20231;-64
2021/10/29 17:51:22;;;;;;;39.97;35.87;;;;;;;10.78;58.77;97658.88;8413328;28;20253;-64
2021/10/29 17:55:30;;;;;;;40.17;35.83;;;;;;;10.75;59.41;97670.22;8413192;28;20230;-65
2021/10/29 17:59:35;;;;;;;37.60;33.73;;;;;;;10.75;59.36;97668.44;8413176;28;20253;-65
2021/10/29 18:03:38;;;;;;;38.97;34.77;;;;;;;10.75;59.07;97660.69;8412818;28;20226;-64
2021/10/29 18:07:41;;;;;;;42.50;38.10;;;;;;;10.54;60.17;97665.19;8412940;28;20242;-64
2021/10/29 18:11:44;;;;;;;40.20;36.00;;;;;;;10.68;59.89;97664.53;8412939;28;20246;-64
2021/10/29 18:15:49;;;;;;;41.20;36.80;;;;;;;10.74;59.92;97671.97;8417645;28;20627;-64
2021/10/29 18:19:52;;;;;;;43.40;36.87;;;;;;;10.74;60.26;97669.38;8418860;28;20231;-65
2021/10/29 18:23:56;;;;;;;42.80;38.55;;;;;;;11.34;58.09;97665.50;8416278;28;20410;-65
2021/10/29 18:27:59;;;;;;;44.00;39.50;;;;;;;10.67;60.75;97659.41;8421151;28;20421;-65
2021/10/29 18:32:04;;;;;;;46.10;40.00;;;;;;;10.59;60.59;97667.56;8452357;28;20222;-65
2021/10/29 18:36:07;;;;;;;48.30;42.67;;;;;;;10.29;61.91;97662.91;8452296;28;20230;-65
2021/10/29 18:40:11;;;;;;;45.63;40.73;;;;;;;10.49;61.48;97658.53;8451846;28;20237;-65
2021/10/29 18:44:14;;;;;;;46.97;41.87;;;;;;;10.60;61.09;97656.25;8451653;28;20230;-66
2021/10/29 18:48:18;;;;;;;46.67;40.83;;;;;;;10.43;61.81;97658.84;8450780;28;20245;-66
2021/10/29 18:52:21;;;;;;;46.43;40.27;;;;;;;10.65;61.66;97656.88;8417928;28;20237;-66
2021/10/29 18:56:24;;;;;;;43.97;39.27;;;;;;;10.68;61.47;97650.72;8417740;28;20419;-66
2021/10/29 19:00:27;;;;;;;45.77;40.80;;;;;;;10.59;61.58;97646.00;8417840;28;20239;-65
2021/10/29 19:04:31;;;;;;;32.57;26.47;;;;;;;12.46;65.32;97643.84;8417203;28;20304;-64
2021/10/29 19:08:34;;;;;;;34.27;30.40;;;;;;;13.13;57.75;97645.19;8417582;28;20231;-64
2021/10/29 19:12:37;;;;;;;46.00;41.00;;;;;;;11.96;56.82;97644.94;8417463;28;20243;-64
2021/10/29 19:16:40;;;;;;;45.73;40.77;;;;;;;11.55;58.41;97646.19;8417776;28;20437;-66
2021/10/29 19:20:44;;;;;;;50.00;44.77;;;;;;;11.26;59.29;97654.69;8450218;28;20237;-65
2021/10/29 19:24:49;;;;;;;49.07;43.70;;;;;;;10.84;60.55;97650.81;8450278;28;20241;-64
2021/10/29 19:28:52;;;;;;;43.47;38.97;;;;;;;10.76;60.92;97646.84;8440112;28;20231;-65
2021/10/29 19:32:55;;;;;;;46.83;41.90;;;;;;;10.82;60.63;97653.47;8416732;28;20557;-65
2021/10/29 19:37:05;;;;;;;51.33;46.13;;;;;;;10.98;59.68;97658.69;8414314;28;20750;-64
2021/10/29 19:41:08;;;;;;;48.70;43.40;;;;;;;10.45;61.37;97639.75;8416719;28;20238;-65
2021/10/29 19:45:11;;;;;;;43.93;39.13;;;;;;;10.39;62.18;97639.22;8415202;28;20242;-65
2021/10/29 19:49:14;;;;;;;48.37;42.13;;;;;;;10.27;61.92;97635.44;8415620;28;20227;-64
2021/10/29 19:53:25;;;;;;;49.17;42.93;;;;;;;9.63;65.02;97631.53;8415478;28;20231;-65
2021/10/29 19:57:39;;;;;;;48.10;42.83;;;;;;;9.65;64.50;97627.97;8415842;28;20238;-64
2021/10/29 20:01:42;;;;;;;46.43;41.20;;;;;;;9.72;64.29;97629.38;8415813;28;20237;-64
2021/10/29 20:05:45;;;;;;;45.53;40.40;;;;;;;9.76;64.46;97624.88;8416019;28;20241;-64
2021/10/29 20:09:49;;;;;;;43.87;39.13;;;;;;;9.70;64.94;97636.34;8415506;28;20231;-64
2021/10/29 20:13:52;;;;;;;43.23;38.53;;;;;;;9.59;64.23;97636.00;8415410;28;20429;-64
2021/10/29 20:17:58;;;;;;;44.57;38.00;;;;;;;9.41;65.82;97642.84;8415394;28;20246;-64
2021/10/29 20:22:00;;;;;;;44.23;39.50;;;;;;;9.76;64.19;97638.66;8415615;28;20242;-65
2021/10/29 20:26:05;;;;;;;46.10;40.57;;;;;;;9.50;64.69;97634.69;8415301;28;20230;-64
2021/10/29 20:30:09;;;;;;;42.73;38.10;;;;;;;9.81;63.12;97629.88;8435409;28;20241;-64
2021/10/29 20:34:12;;;;;;;45.13;40.23;;;;;;;9.81;62.76;97627.28;8448599;28;20537;-65
2021/10/29 20:38:15;;;;;;;45.67;40.07;;;;;;;9.32;64.30;97641.50;8428687;28;20253;-65
2021/10/29 20:42:19;;;;;;;48.43;41.87;;;;;;;8.95;65.36;97637.13;8414882;28;20230;-65
2021/10/29 20:46:22;;;;;;;45.30;40.50;;;;;;;9.28;64.46;97642.56;8414524;28;20428;-65
2021/10/29 20:50:25;;;;;;;47.13;41.97;;;;;;;9.15;64.71;97638.84;8414736;28;20261;-65
2021/10/29 20:54:28;;;;;;;43.27;38.27;;;;;;;9.51;64.18;97644.09;8414558;28;20231;-65
2021/10/29 20:58:32;;;;;;;44.80;39.33;;;;;;;9.47;63.94;97657.25;8413876;28;20231;-66
2021/10/29 21:02:35;;;;;;;44.13;38.63;;;;;;;9.38;64.12;97648.97;8413786;28;20227;-65
2021/10/29 21:06:39;;;;;;;42.47;37.83;;;;;;;9.57;63.52;97638.66;8413816;28;20246;-65
2021/10/29 21:10:42;;;;;;;43.13;37.40;;;;;;;9.92;62.88;97645.72;8413879;28;20234;-64
2021/10/29 21:14:46;;;;;;;44.03;39.13;;;;;;;9.45;64.37;97635.81;8414891;28;20241;-65
2021/10/29 21:18:49;;;;;;;45.27;39.53;;;;;;;9.61;63.86;97647.13;8413183;28;20249;-65
2021/10/29 21:22:52;;;;;;;44.10;39.40;;;;;;;9.63;64.24;97649.63;8404791;28;20238;-66
2021/10/29 21:26:55;;;;;;;45.50;40.37;;;;;;;9.50;64.89;97662.25;8413315;28;20250;-65
2021/10/29 21:31:00;;;;;;;50.43;42.97;;;;;;;9.53;64.10;97644.03;8440609;28;20554;-65
2021/10/29 21:35:04;;;;;;;47.13;42.00;;;;;;;9.48;64.82;97657.19;8447178;28;20237;-65
2021/10/29 21:39:07;;;;;;;51.67;44.17;;;;;;;9.43;65.29;97648.78;8430042;28;20241;-65
2021/10/29 21:43:10;;;;;;;54.47;45.70;;;;;;;9.59;64.30;97646.34;8413542;28;20297;-63
2021/10/29 21:47:14;;;;;;;51.50;43.47;;;;;;;9.53;64.56;97636.28;8413047;28;20231;-64
2021/10/29 21:51:18;;;;;;;54.27;44.93;;;;;;;9.52;64.39;97660.44;8418799;28;20529;-64
2021/10/29 21:55:24;;;;;;;55.87;46.63;;;;;;;9.68;64.34;97660.63;8419762;28;20237;-65
2021/10/29 21:59:27;;;;;;;62.73;48.97;;;;;;;9.61;64.10;97641.94;8420000;28;20234;-64
2021/10/29 22:03:31;;;;;;;63.23;49.00;;;;;;;9.02;66.41;97654.03;8419576;28;20233;-64
2021/10/29 22:07:34;;;;;;;58.97;46.63;;;;;;;9.57;64.90;97663.69;8419229;28;20235;-64
2021/10/29 22:11:40;;;;;;;63.83;50.43;;;;;;;9.52;64.73;97668.19;8419149;28;20537;-63
2021/10/29 22:15:43;;;;;;;64.77;50.53;;;;;;;9.46;64.70;97669.34;8419823;28;20227;-63
2021/10/29 22:19:47;;;;;;;62.30;47.73;;;;;;;9.86;63.20;97664.09;8419136;28;20293;-64
2021/10/29 22:23:50;;;;;;;64.93;49.17;;;;;;;9.67;63.45;97661.50;8418651;28;20238;-64
2021/10/29 22:27:53;;;;;;;66.87;51.30;;;;;;;9.55;63.54;97653.41;8420277;28;20538;-64
2021/10/29 22:31:56;;;;;;;65.17;49.53;;;;;;;9.69;64.09;97644.19;8452254;28;20234;-64